Arklow Rock — PBZM — position and weather

sailwx.info

Track history (hours):
 
Tides and Currents Weather Stations Pressure Air Temp Water Temp Dewpoint Dewpoint Depression Visibility Wind Speed Wind Dir Waves Ship Positions

Arklow Rock

Last reported at 2014-Dec-18 16:28 UTC. Time now 2014-Dec-18 17:26 UTC.
Position N 51°16' E 003°51'.

Length 90 m; draft 3.3 m.

Type: Cargo ship. MMSI: 246002000.

Date/timePositionNaut miles runAvg speedWind from/ knotsBaromVisibWave heightAir tempDewpointWater temp
2014-Dec-18 16:28N 51°16' E 003°51'0 0.0
2014-Dec-18 15:28N 51°16' E 003°51'0 0.0
2014-Dec-18 14:31N 51°16' E 003°51'0 0.0
2014-Dec-18 13:28N 51°16' E 003°51'0 0.0
2014-Dec-18 12:28N 51°16' E 003°51'0 0.0
2014-Dec-18 11:31N 51°16' E 003°51'0 0.0
2014-Dec-18 10:31N 51°16' E 003°51'0 0.0
2014-Dec-18 09:28N 51°16' E 003°51'0 0.0
2014-Dec-18 08:28N 51°16' E 003°51'0 0.0
2014-Dec-18 07:31N 51°16' E 003°51'0 0.0
2014-Dec-18 06:31N 51°16' E 003°51'0 0.0
2014-Dec-18 05:28N 51°16' E 003°51'0 0.0
2014-Dec-18 04:28N 51°16' E 003°51'0 0.0
2014-Dec-18 03:31N 51°16' E 003°51'0 0.0
2014-Dec-18 02:33N 51°16' E 003°51'4 3.6
2014-Dec-18 01:34N 51°20' E 003°49'4 3.5
2014-Dec-18 00:34N 51°22' E 003°45'9 8.8
2014-Dec-17 23:34N 51°27' E 003°33'8 8.0
2014-Dec-17 22:34N 51°33' E 003°25'10 9.6
2014-Dec-17 21:33N 51°42' E 003°18'6 6.2
2014-Dec-17 20:32N 51°48' E 003°20'0 0.1
2014-Dec-17 19:32N 51°48' E 003°20'0 0.0
2014-Dec-17 18:32N 51°48' E 003°20'0 0.0
2014-Dec-17 14:20N 51°48' E 003°20'0 0.0
2014-Dec-17 08:26N 51°48' E 003°20'0 0.1
2014-Dec-17 07:26N 51°48' E 003°20'0 0.1
2014-Dec-17 06:32N 51°48' E 003°20'0 0.1
2014-Dec-17 05:32N 51°48' E 003°20'0 0.0
2014-Dec-17 04:32N 51°48' E 003°20'0 0.0
2014-Dec-17 03:11N 51°48' E 003°20'0 0.0
2014-Dec-17 02:08N 51°48' E 003°20'0 0.7
2014-Dec-17 01:25N 51°48' E 003°20'19 8.6
2014-Dec-16 23:11N 52°04' E 003°37'711.1
2014-Dec-16 22:33N 52°04' E 003°48'10 9.6
2014-Dec-16 21:33N 51°60' E 004°02'1211.7
2014-Dec-16 20:33N 51°54' E 004°19'2 2.1
2014-Dec-16 19:33N 51°52' E 004°20'8 8.4
2014-Dec-16 18:34N 51°50' E 004°33'4 3.7
2014-Dec-16 17:32N 51°48' E 004°38'0 0.0
2014-Dec-16 16:29N 51°48' E 004°38'0 0.0
2014-Dec-16 15:26N 51°48' E 004°38'0 0.0
2014-Dec-16 14:32N 51°48' E 004°38'0 0.0
2014-Dec-16 13:32N 51°48' E 004°38'0 0.0
2014-Dec-16 12:32N 51°48' E 004°38'0 0.0
2014-Dec-16 11:32N 51°48' E 004°38'0 0.0
2014-Dec-16 10:32N 51°48' E 004°38'0 0.0
2014-Dec-16 09:32N 51°48' E 004°38'0 0.0
2014-Dec-16 08:32N 51°48' E 004°38'0 0.0
2014-Dec-16 07:32N 51°48' E 004°38'0 0.0
2014-Dec-16 06:32N 51°48' E 004°38'0 0.0
2014-Dec-16 05:33N 51°48' E 004°38'0 0.0
2014-Dec-16 04:30N 51°48' E 004°38'0 0.0
2014-Dec-16 03:32N 51°48' E 004°38'0 0.0
2014-Dec-16 02:32N 51°48' E 004°38'0 0.0
2014-Dec-16 01:05N 51°48' E 004°38'0 0.0
2014-Dec-15 23:32N 51°48' E 004°38'0 0.0
2014-Dec-15 22:32N 51°48' E 004°38'0 0.0
2014-Dec-15 21:32N 51°48' E 004°38'0 0.0
2014-Dec-15 20:32N 51°48' E 004°38'0 0.0
2014-Dec-15 19:32N 51°48' E 004°38'1 1.1
2014-Dec-15 18:33N 51°48' E 004°37'8 8.1
2014-Dec-15 17:34N 51°51' E 004°24'6 6.5
2014-Dec-15 16:33N 51°54' E 004°16'9 8.5
2014-Dec-15 15:33N 51°59' E 004°04'10 9.3
2014-Dec-15 14:31N 51°60' E 003°49'6110.3
2014-Dec-15 08:33N 51°33' E 002°20'1211.8
2014-Dec-15 07:33N 51°23' E 002°08'1111.2
2014-Dec-15 06:33N 51°13' E 002°01'1212.2
2014-Dec-15 05:33N 51°05' E 001°46'1312.4
2014-Dec-15 04:32N 50°56' E 001°33'409 9.9
2014-Dec-13 11:13N 51°03' W 009°16'711.3
2014-Dec-13 10:33N 51°07' W 009°25'1211.7
2014-Dec-13 09:33N 51°15' W 009°40'1211.9
2014-Dec-13 08:33N 51°22' W 009°55'1311.8
2014-Dec-13 07:29N 51°30' W 010°11'3210.2
2014-Dec-13 04:21N 51°56' W 010°41'11 9.5
2014-Dec-13 03:09N 52°07' W 010°42'6 9.2
2014-Dec-13 02:33N 52°10' W 010°34'10 9.8
2014-Dec-13 01:31N 52°16' W 010°21'1010.0
2014-Dec-13 00:33N 52°22' W 010°08'1110.4
2014-Dec-12 23:32N 52°28' W 009°54'10 0.3
2014-Dec-11 15:11N 52°34' W 009°41'711.1
2014-Dec-11 14:33N 52°30' W 009°50'1111.2
2014-Dec-11 13:33N 52°23' W 010°05'1110.5
2014-Dec-11 12:30N 52°17' W 010°20'9 9.5
2014-Dec-11 11:33N 52°10' W 010°30'12 5.0
2014-Dec-11 09:06N 51°60' W 010°40'1 1.6
2014-Dec-11 08:25N 51°59' W 010°39'26 2.6
2014-Dec-10 22:30N 51°36' W 010°21'2 2.5
2014-Dec-10 21:33N 51°34' W 010°18'3 2.6
2014-Dec-10 20:33N 51°33' W 010°14'3 2.8
2014-Dec-10 19:33N 51°32' W 010°10'2 2.4
2014-Dec-10 18:33N 51°31' W 010°07'3 2.7
2014-Dec-10 17:33N 51°30' W 010°03'3 3.1
2014-Dec-10 16:33N 51°28' W 009°59'3 3.0
2014-Dec-10 15:33N 51°26' W 009°55'3 2.7
2014-Dec-10 14:33N 51°25' W 009°51'2 1.7
2014-Dec-10 13:33N 51°25' W 009°48'2 1.9
2014-Dec-10 12:33N 51°25' W 009°45'32 5.4
2014-Dec-10 06:33N 51°30' W 008°54'7 7.5
2014-Dec-10 05:33N 51°33' W 008°43'8 7.6
2014-Dec-10 04:33N 51°35' W 008°31'8 8.0
2014-Dec-10 03:34N 51°39' W 008°20'9 8.7
2014-Dec-10 02:34N 51°44' W 008°08'9 9.0
2014-Dec-10 01:33N 51°48' W 007°55'9 9.3
2014-Dec-10 00:33N 51°53' W 007°42'9 9.1
2014-Dec-09 23:33N 51°58' W 007°30'8 8.4
2014-Dec-09 22:33N 52°02' W 007°18'6 6.4
2014-Dec-09 21:33N 52°05' W 007°08'6 5.5
2014-Dec-09 20:33N 52°07' W 007°01'7 7.3
2014-Dec-09 19:33N 52°14' W 006°58'8 7.3
2014-Dec-09 18:31N 52°22' W 006°59'  
Track history (hours):
 
Tides and Currents Weather Stations Pressure Air Temp Water Temp Dewpoint Dewpoint Depression Visibility Wind Speed Wind Dir Waves Ship Positions

Arklow Rock

Last reported at 2014-Dec-18 16:28 UTC. Time now 2014-Dec-18 17:26 UTC.
Position N 51°16' E 003°51'.

Length 90 m; draft 3.3 m.

Type: Cargo ship. MMSI: 246002000.

Date/timePositionNaut miles runAvg speedWind from/ knotsBaromVisibWave heightAir tempDewpointWater temp
2014-Dec-18 16:28N 51°16' E 003°51'0 0.0
2014-Dec-18 15:28N 51°16' E 003°51'0 0.0
2014-Dec-18 14:31N 51°16' E 003°51'0 0.0
2014-Dec-18 13:28N 51°16' E 003°51'0 0.0
2014-Dec-18 12:28N 51°16' E 003°51'0 0.0
2014-Dec-18 11:31N 51°16' E 003°51'0 0.0
2014-Dec-18 10:31N 51°16' E 003°51'0 0.0
2014-Dec-18 09:28N 51°16' E 003°51'0 0.0
2014-Dec-18 08:28N 51°16' E 003°51'0 0.0
2014-Dec-18 07:31N 51°16' E 003°51'0 0.0
2014-Dec-18 06:31N 51°16' E 003°51'0 0.0
2014-Dec-18 05:28N 51°16' E 003°51'0 0.0
2014-Dec-18 04:28N 51°16' E 003°51'0 0.0
2014-Dec-18 03:31N 51°16' E 003°51'0 0.0
2014-Dec-18 02:33N 51°16' E 003°51'4 3.6
2014-Dec-18 01:34N 51°20' E 003°49'4 3.5
2014-Dec-18 00:34N 51°22' E 003°45'9 8.8
2014-Dec-17 23:34N 51°27' E 003°33'8 8.0
2014-Dec-17 22:34N 51°33' E 003°25'10 9.6
2014-Dec-17 21:33N 51°42' E 003°18'6 6.2
2014-Dec-17 20:32N 51°48' E 003°20'0 0.1
2014-Dec-17 19:32N 51°48' E 003°20'0 0.0
2014-Dec-17 18:32N 51°48' E 003°20'0 0.0
2014-Dec-17 14:20N 51°48' E 003°20'0 0.0
2014-Dec-17 08:26N 51°48' E 003°20'0 0.1
2014-Dec-17 07:26N 51°48' E 003°20'0 0.1
2014-Dec-17 06:32N 51°48' E 003°20'0 0.1
2014-Dec-17 05:32N 51°48' E 003°20'0 0.0
2014-Dec-17 04:32N 51°48' E 003°20'0 0.0
2014-Dec-17 03:11N 51°48' E 003°20'0 0.0
2014-Dec-17 02:08N 51°48' E 003°20'0 0.7
2014-Dec-17 01:25N 51°48' E 003°20'19 8.6
2014-Dec-16 23:11N 52°04' E 003°37'711.1
2014-Dec-16 22:33N 52°04' E 003°48'10 9.6
2014-Dec-16 21:33N 51°60' E 004°02'1211.7
2014-Dec-16 20:33N 51°54' E 004°19'2 2.1
2014-Dec-16 19:33N 51°52' E 004°20'8 8.4
2014-Dec-16 18:34N 51°50' E 004°33'4 3.7
2014-Dec-16 17:32N 51°48' E 004°38'0 0.0
2014-Dec-16 16:29N 51°48' E 004°38'0 0.0
2014-Dec-16 15:26N 51°48' E 004°38'0 0.0
2014-Dec-16 14:32N 51°48' E 004°38'0 0.0
2014-Dec-16 13:32N 51°48' E 004°38'0 0.0
2014-Dec-16 12:32N 51°48' E 004°38'0 0.0
2014-Dec-16 11:32N 51°48' E 004°38'0 0.0
2014-Dec-16 10:32N 51°48' E 004°38'0 0.0
2014-Dec-16 09:32N 51°48' E 004°38'0 0.0
2014-Dec-16 08:32N 51°48' E 004°38'0 0.0
2014-Dec-16 07:32N 51°48' E 004°38'0 0.0
2014-Dec-16 06:32N 51°48' E 004°38'0 0.0
2014-Dec-16 05:33N 51°48' E 004°38'0 0.0
2014-Dec-16 04:30N 51°48' E 004°38'0 0.0
2014-Dec-16 03:32N 51°48' E 004°38'0 0.0
2014-Dec-16 02:32N 51°48' E 004°38'0 0.0
2014-Dec-16 01:05N 51°48' E 004°38'0 0.0
2014-Dec-15 23:32N 51°48' E 004°38'0 0.0
2014-Dec-15 22:32N 51°48' E 004°38'0 0.0
2014-Dec-15 21:32N 51°48' E 004°38'0 0.0
2014-Dec-15 20:32N 51°48' E 004°38'0 0.0
2014-Dec-15 19:32N 51°48' E 004°38'1 1.1
2014-Dec-15 18:33N 51°48' E 004°37'8 8.1
2014-Dec-15 17:34N 51°51' E 004°24'6 6.5
2014-Dec-15 16:33N 51°54' E 004°16'9 8.5
2014-Dec-15 15:33N 51°59' E 004°04'10 9.3
2014-Dec-15 14:31N 51°60' E 003°49'6110.3
2014-Dec-15 08:33N 51°33' E 002°20'1211.8
2014-Dec-15 07:33N 51°23' E 002°08'1111.2
2014-Dec-15 06:33N 51°13' E 002°01'1212.2
2014-Dec-15 05:33N 51°05' E 001°46'1312.4
2014-Dec-15 04:32N 50°56' E 001°33'409 9.9
2014-Dec-13 11:13N 51°03' W 009°16'711.3
2014-Dec-13 10:33N 51°07' W 009°25'1211.7
2014-Dec-13 09:33N 51°15' W 009°40'1211.9
2014-Dec-13 08:33N 51°22' W 009°55'1311.8
2014-Dec-13 07:29N 51°30' W 010°11'3210.2
2014-Dec-13 04:21N 51°56' W 010°41'11 9.5
2014-Dec-13 03:09N 52°07' W 010°42'6 9.2
2014-Dec-13 02:33N 52°10' W 010°34'10 9.8
2014-Dec-13 01:31N 52°16' W 010°21'1010.0
2014-Dec-13 00:33N 52°22' W 010°08'1110.4
2014-Dec-12 23:32N 52°28' W 009°54'10 0.3
2014-Dec-11 15:11N 52°34' W 009°41'711.1
2014-Dec-11 14:33N 52°30' W 009°50'1111.2
2014-Dec-11 13:33N 52°23' W 010°05'1110.5
2014-Dec-11 12:30N 52°17' W 010°20'9 9.5
2014-Dec-11 11:33N 52°10' W 010°30'12 5.0
2014-Dec-11 09:06N 51°60' W 010°40'1 1.6
2014-Dec-11 08:25N 51°59' W 010°39'26 2.6
2014-Dec-10 22:30N 51°36' W 010°21'2 2.5
2014-Dec-10 21:33N 51°34' W 010°18'3 2.6
2014-Dec-10 20:33N 51°33' W 010°14'3 2.8
2014-Dec-10 19:33N 51°32' W 010°10'2 2.4
2014-Dec-10 18:33N 51°31' W 010°07'3 2.7
2014-Dec-10 17:33N 51°30' W 010°03'3 3.1
2014-Dec-10 16:33N 51°28' W 009°59'3 3.0
2014-Dec-10 15:33N 51°26' W 009°55'3 2.7
2014-Dec-10 14:33N 51°25' W 009°51'2 1.7
2014-Dec-10 13:33N 51°25' W 009°48'2 1.9
2014-Dec-10 12:33N 51°25' W 009°45'32 5.4
2014-Dec-10 06:33N 51°30' W 008°54'7 7.5
2014-Dec-10 05:33N 51°33' W 008°43'8 7.6
2014-Dec-10 04:33N 51°35' W 008°31'8 8.0
2014-Dec-10 03:34N 51°39' W 008°20'9 8.7
2014-Dec-10 02:34N 51°44' W 008°08'9 9.0
2014-Dec-10 01:33N 51°48' W 007°55'9 9.3
2014-Dec-10 00:33N 51°53' W 007°42'9 9.1
2014-Dec-09 23:33N 51°58' W 007°30'8 8.4
2014-Dec-09 22:33N 52°02' W 007°18'6 6.4
2014-Dec-09 21:33N 52°05' W 007°08'6 5.5
2014-Dec-09 20:33N 52°07' W 007°01'7 7.3
2014-Dec-09 19:33N 52°14' W 006°58'8 7.3
2014-Dec-09 18:31N 52°22' W 006°59'  

Dump ship's entire track history